Time;durP1;ratioP1;P1;durP2;ratioP2;P2;SDS_P1;SDS_P2;PMS_P1;PMS_P2;Temp;Humidity;BMP_temperature;BMP_pressure;BME280_temperature;BME280_humidity;BME280_pressure;Samples;Min_cycle;Max_cycle;Signal;HPM_P1;HPM_P2
2021/12/26 00:01:29;;;;;;;20.92;10.43;;;;;;;3.95;100.00;97989.00;5061828;28;20086;-64
2021/12/26 00:03:55;;;;;;;22.42;11.30;;;;;;;3.95;100.00;97994.22;5046208;28;20220;-64
2021/12/26 00:06:25;;;;;;;18.20;9.85;;;;;;;3.99;100.00;97990.72;5046106;28;20321;-64
2021/12/26 00:08:54;;;;;;;20.40;10.68;;;;;;;4.00;100.00;98000.28;5046169;28;20036;-64
2021/12/26 00:11:20;;;;;;;20.48;10.50;;;;;;;4.03;100.00;97997.66;5045880;28;20041;-64
2021/12/26 00:13:46;;;;;;;21.23;10.48;;;;;;;4.11;100.00;97995.88;5045269;28;20248;-64
2021/12/26 00:16:12;;;;;;;21.63;10.00;;;;;;;4.19;100.00;97988.03;5050077;28;20311;-64
2021/12/26 00:18:42;;;;;;;17.15;9.25;;;;;;;4.22;100.00;97983.69;5065836;28;20063;-64
2021/12/26 00:21:08;;;;;;;18.00;9.43;;;;;;;4.23;100.00;97980.22;5066084;28;20021;-64
2021/12/26 00:23:34;;;;;;;19.30;9.82;;;;;;;4.18;100.00;97986.31;5065807;28;20025;-64
2021/12/26 00:25:59;;;;;;;19.73;9.80;;;;;;;4.12;100.00;97981.97;5065806;28;20028;-64
2021/12/26 00:28:25;;;;;;;23.33;10.82;;;;;;;4.02;100.00;97980.28;5065656;28;20031;-64
2021/12/26 00:30:51;;;;;;;22.08;10.20;;;;;;;3.97;100.00;97983.78;5065619;28;20025;-64
2021/12/26 00:33:17;;;;;;;18.20;10.13;;;;;;;4.03;100.00;97979.44;5065126;28;20065;-64
2021/12/26 00:35:42;;;;;;;17.45;9.10;;;;;;;4.01;100.00;97983.78;5065547;28;20348;-64
2021/12/26 00:38:08;;;;;;;21.85;9.70;;;;;;;4.10;100.00;97983.75;5065529;28;20024;-64
2021/12/26 00:40:34;;;;;;;18.40;9.25;;;;;;;4.07;100.00;97970.72;5065437;28;20020;-64
2021/12/26 00:42:59;;;;;;;24.88;10.75;;;;;;;4.06;100.00;97976.81;5065412;28;20032;-64
2021/12/26 00:45:25;;;;;;;22.90;11.25;;;;;;;4.05;100.00;97974.22;5065341;28;20070;-64
2021/12/26 00:47:51;;;;;;;17.38;9.50;;;;;;;4.29;100.00;97979.28;5065574;28;20043;-64
2021/12/26 00:50:21;;;;;;;14.30;8.70;;;;;;;4.14;100.00;97963.75;5062086;28;20179;-64
2021/12/26 00:52:47;;;;;;;20.38;9.00;;;;;;;4.08;100.00;97963.75;5045365;28;20075;-64
2021/12/26 00:55:14;;;;;;;14.73;8.88;;;;;;;4.12;100.00;97976.75;5045208;28;20021;-64
2021/12/26 00:57:39;;;;;;;16.10;9.05;;;;;;;4.17;100.00;97980.22;5045414;28;20275;-64
2021/12/26 01:00:08;;;;;;;15.48;8.93;;;;;;;4.16;100.00;97965.50;5045366;28;20021;-64
2021/12/26 01:02:34;;;;;;;16.80;8.38;;;;;;;4.14;100.00;97980.25;5059864;28;20205;-64
2021/12/26 01:05:00;;;;;;;14.20;7.80;;;;;;;4.15;100.00;97952.47;5064923;28;20051;-64
2021/12/26 01:07:56;;;;;;;14.57;7.70;;;;;;;4.06;100.00;97961.19;5064996;28;20190;-64
2021/12/26 01:10:24;;;;;;;14.40;8.13;;;;;;;4.06;100.00;97958.59;5064712;28;20048;-64
2021/12/26 01:12:50;;;;;;;16.50;8.60;;;;;;;3.99;100.00;97953.41;5064299;28;20033;-64
2021/12/26 01:15:17;;;;;;;17.92;8.18;;;;;;;4.02;100.00;97962.06;5065367;28;20090;-64
2021/12/26 01:17:44;;;;;;;14.52;7.60;;;;;;;4.00;100.00;97956.03;5064803;28;20232;-64
2021/12/26 01:20:27;;;;;;;16.52;9.18;;;;;;;3.93;100.00;97958.66;5064714;28;20088;-64
2021/12/26 01:22:52;;;;;;;15.40;8.38;;;;;;;3.90;100.00;97959.50;5064660;28;20016;-64
2021/12/26 01:25:18;;;;;;;16.17;9.05;;;;;;;3.95;100.00;97962.97;5064671;28;20024;-64
2021/12/26 01:27:43;;;;;;;12.00;7.43;;;;;;;3.98;100.00;97962.97;5064605;28;20024;-64
2021/12/26 01:30:09;;;;;;;12.70;7.68;;;;;;;4.02;100.00;97964.66;5064474;28;20028;-64
2021/12/26 01:32:35;;;;;;;15.70;7.82;;;;;;;3.96;100.00;97956.88;5064761;28;20332;-64
2021/12/26 01:35:00;;;;;;;13.05;7.50;;;;;;;4.06;100.00;97961.19;5064452;28;20020;-64
2021/12/26 01:37:25;;;;;;;11.20;6.90;;;;;;;4.04;100.00;97957.72;5064408;28;20092;-64
2021/12/26 01:39:51;;;;;;;12.80;7.82;;;;;;;3.95;100.00;97952.56;5064374;28;20062;-64
2021/12/26 01:42:17;;;;;;;13.45;7.35;;;;;;;3.94;100.00;97961.25;5064459;28;20020;-64
2021/12/26 01:44:42;;;;;;;10.60;6.47;;;;;;;3.96;100.00;97956.88;5064406;28;20025;-64
2021/12/26 01:47:09;;;;;;;15.02;8.38;;;;;;;3.97;100.00;97953.44;5064235;28;20366;-64
2021/12/26 01:49:34;;;;;;;12.75;6.65;;;;;;;4.03;100.00;97955.13;5064222;28;20021;-64
2021/12/26 01:52:03;;;;;;;13.10;7.20;;;;;;;3.94;100.00;97950.84;5064074;28;20024;-64
2021/12/26 01:54:42;;;;;;;11.95;7.35;;;;;;;4.01;100.00;97957.75;5064080;28;20025;-64
2021/12/26 01:57:10;;;;;;;11.93;6.28;;;;;;;4.02;100.00;97949.03;5051764;28;20022;-64
2021/12/26 01:59:37;;;;;;;12.27;7.22;;;;;;;3.96;100.00;97946.47;5044382;28;20340;-64
2021/12/26 02:02:03;;;;;;;13.65;7.03;;;;;;;3.98;100.00;97952.53;5044080;28;20262;-64
2021/12/26 02:04:29;;;;;;;13.43;7.13;;;;;;;3.98;100.00;97947.34;5044010;28;20029;-64
2021/12/26 02:07:02;;;;;;;10.80;6.55;;;;;;;3.97;100.00;97952.56;5044036;28;20025;-64
2021/12/26 02:09:28;;;;;;;14.02;7.75;;;;;;;3.97;100.00;97948.22;5044260;28;20391;-64
2021/12/26 02:11:54;;;;;;;11.88;7.65;;;;;;;3.93;100.00;97958.66;5047778;28;20045;-64
2021/12/26 02:14:19;;;;;;;10.43;6.90;;;;;;;3.95;100.00;97959.50;5063943;28;20079;-64
2021/12/26 02:16:45;;;;;;;14.75;7.93;;;;;;;3.97;100.00;97966.44;5063842;28;20035;-64
2021/12/26 02:19:11;;;;;;;11.70;7.20;;;;;;;3.99;100.00;97963.84;5063830;28;20028;-64
2021/12/26 02:24:17;;;;;;;12.35;7.07;;;;;;;4.02;100.00;97964.66;5063547;28;20228;-64
2021/12/26 02:29:26;;;;;;;10.55;6.30;;;;;;;4.10;100.00;97957.69;5063783;28;20032;-64
2021/12/26 02:31:52;;;;;;;9.95;6.25;;;;;;;4.19;100.00;97957.66;5046839;28;20249;-64
2021/12/26 02:34:18;;;;;;;9.90;6.25;;;;;;;4.24;100.00;97955.03;5043775;28;20029;-64
2021/12/26 02:36:44;;;;;;;11.68;6.82;;;;;;;4.03;100.00;97949.94;5043730;28;20032;-64
2021/12/26 02:39:09;;;;;;;12.25;7.40;;;;;;;3.97;100.00;97955.16;5043679;28;20036;-64
2021/12/26 02:41:35;;;;;;;11.52;6.30;;;;;;;4.01;100.00;97956.88;5043632;28;20025;-64
2021/12/26 02:44:00;;;;;;;11.65;7.15;;;;;;;4.17;100.00;97963.72;5052554;28;20063;-64
2021/12/26 02:46:26;;;;;;;10.88;6.65;;;;;;;4.01;100.00;97949.94;5063544;28;20032;-64
2021/12/26 02:48:52;;;;;;;13.85;6.68;;;;;;;4.07;100.00;97946.44;5063596;28;20088;-64
2021/12/26 02:51:17;;;;;;;13.57;7.30;;;;;;;4.02;100.00;97949.03;5063443;28;20329;-64
2021/12/26 02:53:47;;;;;;;10.90;6.65;;;;;;;4.07;100.00;97947.31;5063537;28;20216;-64
2021/12/26 02:56:13;;;;;;;11.25;6.63;;;;;;;4.10;100.00;97946.41;5063491;28;20340;-64
2021/12/26 02:58:38;;;;;;;11.45;6.63;;;;;;;4.05;100.00;97943.81;5063743;28;20028;-64
2021/12/26 03:01:09;;;;;;;11.02;6.90;;;;;;;3.98;100.00;97936.94;5063428;28;20040;-64
2021/12/26 03:03:35;;;;;;;13.55;7.93;;;;;;;4.06;100.00;97945.59;5044864;28;20154;-64
2021/12/26 03:06:12;;;;;;;11.93;6.75;;;;;;;4.00;100.00;97950.81;5043456;28;20022;-64
2021/12/26 03:08:38;;;;;;;12.85;7.07;;;;;;;4.01;100.00;97947.31;5043718;28;20217;-64
2021/12/26 03:11:04;;;;;;;12.38;7.38;;;;;;;4.07;100.00;97941.22;5043195;28;20048;-64
2021/12/26 03:13:30;;;;;;;12.43;7.32;;;;;;;4.02;100.00;97943.84;5043408;28;20025;-64
2021/12/26 03:15:56;;;;;;;12.82;7.18;;;;;;;4.10;100.00;97942.06;5043375;28;20025;-64
2021/12/26 03:18:21;;;;;;;11.18;7.10;;;;;;;4.05;100.00;97943.81;5043360;28;20021;-64
2021/12/26 03:20:49;;;;;;;11.77;7.05;;;;;;;4.13;100.00;97946.41;5043327;28;20077;-64
2021/12/26 03:23:18;;;;;;;12.02;7.15;;;;;;;4.22;100.00;97947.22;5043279;28;20336;-64
2021/12/26 03:25:45;;;;;;;12.25;7.82;;;;;;;4.01;100.00;97947.31;5043298;28;20088;-64
2021/12/26 03:28:11;;;;;;;12.20;7.47;;;;;;;4.08;100.00;97943.81;5043226;28;20025;-64
2021/12/26 03:30:38;;;;;;;13.85;7.60;;;;;;;4.15;100.00;97944.66;5043174;28;20228;-64
2021/12/26 03:33:06;;;;;;;12.95;7.85;;;;;;;3.93;100.00;97946.47;5043441;28;20086;-64
2021/12/26 03:35:33;;;;;;;14.73;8.10;;;;;;;4.15;100.00;97955.91;5045226;28;20119;-64
2021/12/26 03:37:59;;;;;;;14.75;8.75;;;;;;;4.11;100.00;97950.72;5066323;28;20045;-64
2021/12/26 03:40:24;;;;;;;14.13;8.45;;;;;;;4.13;100.00;97944.66;5066883;28;20033;-64
2021/12/26 03:42:51;;;;;;;16.13;8.75;;;;;;;4.11;100.00;97933.38;5066630;28;20025;-64
2021/12/26 03:45:18;;;;;;;13.43;8.38;;;;;;;4.05;100.00;97930.81;5066807;28;20243;-64
2021/12/26 03:47:48;;;;;;;15.13;8.48;;;;;;;3.91;100.00;97924.81;5066508;28;20024;-64
2021/12/26 03:50:14;;;;;;;17.40;8.75;;;;;;;3.98;100.00;97921.31;5066677;28;20021;-64
2021/12/26 03:52:39;;;;;;;16.27;8.68;;;;;;;4.00;100.00;97922.19;5065659;28;20257;-64
2021/12/26 03:55:05;;;;;;;16.50;9.20;;;;;;;3.91;100.00;97924.81;5066412;28;20021;-64
2021/12/26 03:57:30;;;;;;;14.15;8.68;;;;;;;4.07;100.00;97925.59;5066575;28;20050;-64
2021/12/26 03:59:56;;;;;;;19.20;10.20;;;;;;;3.96;100.00;97922.19;5066334;28;20025;-64
2021/12/26 04:02:21;;;;;;;18.95;9.95;;;;;;;4.02;100.00;97938.63;5066223;28;20066;-64
2021/12/26 04:04:46;;;;;;;17.88;9.77;;;;;;;4.02;100.00;97938.63;5066123;28;20025;-64
2021/12/26 04:07:12;;;;;;;16.73;9.25;;;;;;;3.94;100.00;97940.41;5066130;28;20020;-64
2021/12/26 04:09:38;;;;;;;16.65;9.93;;;;;;;4.12;100.00;97963.75;5065926;28;20343;-64
2021/12/26 04:12:04;;;;;;;17.77;9.00;;;;;;;4.01;100.00;97955.13;5066034;28;20032;-64
2021/12/26 04:14:29;;;;;;;20.02;10.23;;;;;;;3.96;100.00;97954.28;5065975;28;20024;-64
2021/12/26 04:16:55;;;;;;;19.85;10.70;;;;;;;4.03;100.00;97955.13;5065924;28;20021;-64
2021/12/26 04:19:20;;;;;;;18.85;9.93;;;;;;;4.03;100.00;97942.09;5066018;28;20320;-64
2021/12/26 04:21:46;;;;;;;17.55;9.65;;;;;;;4.03;100.00;97956.00;5065866;28;20062;-64
2021/12/26 04:24:12;;;;;;;21.85;9.95;;;;;;;4.01;100.00;97926.50;5065829;28;20024;-64
2021/12/26 04:26:39;;;;;;;20.40;10.82;;;;;;;3.92;100.00;97952.56;5051543;28;20337;-64
2021/12/26 04:29:04;;;;;;;21.00;10.25;;;;;;;3.91;100.00;97950.84;5045698;28;20022;-64
2021/12/26 04:31:30;;;;;;;19.90;10.55;;;;;;;3.84;100.00;97943.94;5045646;28;20025;-64
2021/12/26 04:33:55;;;;;;;21.73;10.95;;;;;;;3.84;100.00;97954.34;5045712;28;20317;-64
2021/12/26 04:36:21;;;;;;;18.70;10.35;;;;;;;3.82;100.00;97952.59;5045618;28;20044;-64
2021/12/26 04:38:47;;;;;;;22.63;11.55;;;;;;;3.92;100.00;97951.69;5045548;28;20025;-64
2021/12/26 04:41:13;;;;;;;16.98;9.15;;;;;;;3.95;100.00;97955.16;5049664;28;20033;-64
2021/12/26 04:43:39;;;;;;;17.48;9.88;;;;;;;3.85;100.00;97950.88;5065437;28;20027;-64
2021/12/26 04:46:06;;;;;;;21.23;11.65;;;;;;;3.86;100.00;97947.38;5065266;28;20202;-64
2021/12/26 04:48:33;;;;;;;21.27;10.35;;;;;;;3.93;100.00;97951.69;5065395;28;20025;-64
2021/12/26 04:50:59;;;;;;;21.73;10.75;;;;;;;3.83;100.00;97947.41;5065214;28;20198;-64
2021/12/26 04:53:25;;;;;;;21.85;10.88;;;;;;;3.81;100.00;97946.56;5059366;28;20115;-64
2021/12/26 04:55:50;;;;;;;25.02;11.20;;;;;;;3.88;100.00;97956.06;5045239;28;20029;-64
2021/12/26 04:58:16;;;;;;;20.35;10.80;;;;;;;3.92;100.00;97955.16;5045179;28;20025;-64
2021/12/26 05:00:42;;;;;;;20.77;10.18;;;;;;;3.87;100.00;97943.94;5057863;28;20021;-64
2021/12/26 05:03:08;;;;;;;21.17;10.48;;;;;;;3.89;100.00;97947.38;5064981;28;20324;-64
2021/12/26 05:05:35;;;;;;;24.13;10.95;;;;;;;3.96;100.00;97959.47;5065026;28;20021;-64
2021/12/26 05:08:00;;;;;;;21.83;11.05;;;;;;;3.91;100.00;97956.06;5064996;28;20029;-64
2021/12/26 05:10:28;;;;;;;18.83;10.90;;;;;;;4.08;100.00;97954.22;5064690;28;20385;-64
2021/12/26 05:12:54;;;;;;;19.15;10.23;;;;;;;4.03;100.00;97956.00;5065199;28;20095;-64
2021/12/26 05:15:21;;;;;;;21.52;10.65;;;;;;;4.03;100.00;97950.81;5064957;28;20035;-64
2021/12/26 05:17:48;;;;;;;19.13;10.63;;;;;;;4.08;100.00;97942.94;5064743;28;20021;-64
2021/12/26 05:20:14;;;;;;;25.17;11.68;;;;;;;3.94;100.00;97945.63;5064789;28;20070;-64
2021/12/26 05:22:40;;;;;;;15.25;8.77;;;;;;;4.04;100.00;97936.03;5064670;28;20025;-64
2021/12/26 05:25:07;;;;;;;19.73;11.05;;;;;;;4.01;100.00;97926.50;5064406;28;20025;-64
2021/12/26 05:27:33;;;;;;;15.45;8.82;;;;;;;4.05;100.00;97938.63;5064581;28;20340;-64
2021/12/26 05:29:58;;;;;;;20.45;9.25;;;;;;;4.08;100.00;97930.78;5064595;28;20055;-64
2021/12/26 05:32:24;;;;;;;19.27;10.43;;;;;;;4.14;100.00;97933.38;5050061;28;20029;-64
2021/12/26 05:34:49;;;;;;;17.38;9.13;;;;;;;4.25;100.00;97931.56;5044544;28;20029;-64
2021/12/26 05:37:15;;;;;;;18.13;9.35;;;;;;;4.20;100.00;97925.53;5044484;28;20032;-64
2021/12/26 05:39:42;;;;;;;17.45;9.30;;;;;;;4.14;100.00;97927.28;5044456;28;20029;-64
2021/12/26 05:42:10;;;;;;;14.43;8.52;;;;;;;4.10;100.00;97923.84;5044683;28;20021;-64
2021/12/26 05:44:36;;;;;;;15.23;8.95;;;;;;;4.04;100.00;97926.47;5054247;28;20093;-64
2021/12/26 05:47:01;;;;;;;15.55;9.00;;;;;;;4.06;100.00;97927.34;5064242;28;20024;-64
2021/12/26 05:49:27;;;;;;;14.63;9.10;;;;;;;4.23;100.00;97928.13;5064249;28;20040;-64
2021/12/26 05:51:53;;;;;;;16.23;9.20;;;;;;;4.13;100.00;97921.22;5064107;28;20043;-64
2021/12/26 05:54:18;;;;;;;17.20;9.25;;;;;;;3.95;100.00;97916.13;5064179;28;20056;-64
2021/12/26 05:56:44;;;;;;;20.10;9.48;;;;;;;3.94;100.00;97918.72;5064082;28;20032;-64
2021/12/26 05:59:09;;;;;;;17.50;8.85;;;;;;;4.01;100.00;97920.41;5063675;28;20084;-64
2021/12/26 06:01:35;;;;;;;18.15;9.35;;;;;;;4.04;100.00;97913.47;5064059;28;20025;-64
2021/12/26 06:04:00;;;;;;;17.73;9.45;;;;;;;4.09;100.00;97911.69;5063961;28;20337;-64
2021/12/26 06:06:25;;;;;;;16.27;8.85;;;;;;;4.14;100.00;97907.34;5051314;28;20336;-64
2021/12/26 06:08:51;;;;;;;17.63;9.98;;;;;;;4.28;100.00;97915.91;5044087;28;20317;-64
2021/12/26 06:11:16;;;;;;;14.25;8.15;;;;;;;4.22;100.00;97905.56;5043708;28;20353;-64
2021/12/26 06:13:42;;;;;;;18.15;8.30;;;;;;;4.30;100.00;97903.75;5043955;28;20029;-64
2021/12/26 06:16:07;;;;;;;17.42;9.57;;;;;;;4.24;99.64;97901.19;5043953;28;20068;-64
2021/12/26 06:18:33;;;;;;;17.88;9.82;;;;;;;4.11;100.00;97901.25;5043921;28;20033;-64
2021/12/26 06:20:58;;;;;;;18.30;10.05;;;;;;;4.07;100.00;97902.16;5044204;28;20317;-64
2021/12/26 06:23:23;;;;;;;17.60;9.75;;;;;;;4.09;100.00;97909.09;5044132;28;20317;-64
2021/12/26 06:25:49;;;;;;;19.45;10.48;;;;;;;4.10;100.00;97905.63;5043077;28;20029;-64
2021/12/26 06:28:14;;;;;;;18.77;9.57;;;;;;;4.21;100.00;97914.22;5042661;28;20036;-64
2021/12/26 06:30:39;;;;;;;19.15;9.88;;;;;;;4.12;100.00;97908.22;5042797;28;20026;-64
2021/12/26 06:33:05;;;;;;;19.83;9.70;;;;;;;4.16;100.00;97908.19;5042854;28;20029;-64
2021/12/26 06:35:30;;;;;;;19.75;9.40;;;;;;;4.16;100.00;97916.00;5042824;28;20294;-64
2021/12/26 06:37:57;;;;;;;19.42;10.00;;;;;;;4.14;100.00;97912.53;5042794;28;20028;-64
2021/12/26 06:40:22;;;;;;;23.05;11.30;;;;;;;4.06;100.00;97906.53;5043472;28;20025;-64
2021/12/26 06:42:50;;;;;;;18.95;9.88;;;;;;;4.19;100.00;97908.19;5042759;28;20071;-64
2021/12/26 06:45:17;;;;;;;19.60;9.63;;;;;;;4.24;100.00;97909.00;5042978;28;20017;-64
2021/12/26 06:47:48;;;;;;;18.95;9.68;;;;;;;4.11;100.00;97899.53;5042706;28;20278;-64
2021/12/26 06:50:14;;;;;;;18.63;9.98;;;;;;;3.91;100.00;97914.41;5043012;28;20041;-64
2021/12/26 06:52:39;;;;;;;18.20;10.00;;;;;;;4.01;100.00;97920.41;5043595;28;20013;-64
2021/12/26 06:55:05;;;;;;;22.38;11.45;;;;;;;4.12;100.00;97935.09;5042664;28;20025;-65
2021/12/26 06:57:30;;;;;;;19.67;10.07;;;;;;;4.00;100.00;97934.31;5045294;28;20032;-65
2021/12/26 06:59:56;;;;;;;20.05;10.43;;;;;;;4.00;100.00;97922.19;5050997;28;20029;-65
2021/12/26 07:02:21;;;;;;;17.92;10.00;;;;;;;4.02;100.00;97928.22;5051201;28;20099;-65
2021/12/26 07:04:47;;;;;;;18.77;9.90;;;;;;;4.08;100.00;97928.19;5058325;28;20021;-65
2021/12/26 07:07:13;;;;;;;20.35;9.93;;;;;;;4.00;100.00;97919.56;5042360;28;20021;-65
2021/12/26 07:09:39;;;;;;;17.90;8.85;;;;;;;4.14;100.00;97929.88;5053437;28;20033;-65
2021/12/26 07:12:06;;;;;;;18.25;8.77;;;;;;;4.18;100.00;97932.47;5065485;28;20025;-65
2021/12/26 07:14:31;;;;;;;19.05;10.63;;;;;;;4.13;100.00;97920.34;5059470;28;20030;-65
2021/12/26 07:16:57;;;;;;;18.85;9.60;;;;;;;4.07;100.00;97923.88;5048925;28;20025;-65
2021/12/26 07:19:22;;;;;;;18.55;9.65;;;;;;;4.14;100.00;97933.38;5046032;28;20017;-65
2021/12/26 07:21:48;;;;;;;21.27;10.30;;;;;;;4.07;100.00;97916.06;5046376;28;20201;-65
2021/12/26 07:24:13;;;;;;;19.45;8.73;;;;;;;4.13;100.00;97923.84;5046095;28;20036;-65
2021/12/26 07:26:38;;;;;;;18.80;9.15;;;;;;;4.13;100.00;97921.22;5046039;28;20021;-65
2021/12/26 07:29:04;;;;;;;19.05;9.80;;;;;;;4.09;100.00;97924.69;5046214;28;20018;-65
2021/12/26 07:31:29;;;;;;;20.38;10.10;;;;;;;4.13;100.00;97921.22;5045702;28;20359;-65
2021/12/26 07:33:55;;;;;;;18.48;9.93;;;;;;;4.01;100.00;97920.41;5045838;28;20339;-65
2021/12/26 07:36:21;;;;;;;18.23;9.68;;;;;;;3.84;100.00;97923.13;5046085;28;20022;-65
2021/12/26 07:38:46;;;;;;;18.10;8.93;;;;;;;3.96;100.00;97935.22;5045789;28;20381;-65
2021/12/26 07:41:11;;;;;;;18.48;9.60;;;;;;;3.92;100.00;97934.34;5063864;28;20040;-65
2021/12/26 07:43:37;;;;;;;19.90;9.75;;;;;;;4.03;100.00;97935.19;5065639;28;20023;-65
2021/12/26 07:46:02;;;;;;;23.77;9.85;;;;;;;4.08;100.00;97936.00;5055026;28;20093;-65
2021/12/26 07:48:28;;;;;;;18.90;9.10;;;;;;;4.12;100.00;97935.09;5045900;28;20024;-65
2021/12/26 07:50:53;;;;;;;23.15;9.95;;;;;;;4.00;100.00;97935.19;5045538;28;20112;-65
2021/12/26 07:53:18;;;;;;;17.83;9.02;;;;;;;3.97;100.00;97935.22;5045794;28;20313;-65
2021/12/26 07:55:44;;;;;;;18.02;9.25;;;;;;;4.18;100.00;97940.28;5052675;28;20033;-65
2021/12/26 07:58:09;;;;;;;15.57;8.70;;;;;;;4.22;99.99;97926.41;5053620;28;20025;-65
2021/12/26 08:00:35;;;;;;;17.60;9.02;;;;;;;4.08;100.00;97927.31;5053724;28;20021;-65
2021/12/26 08:03:01;;;;;;;21.25;10.63;;;;;;;4.04;100.00;97930.81;5055006;28;20084;-65
2021/12/26 08:05:27;;;;;;;21.40;10.38;;;;;;;3.98;100.00;97931.72;5065545;28;20027;-65
2021/12/26 08:07:52;;;;;;;17.42;8.73;;;;;;;4.14;100.00;97928.16;5054093;28;20213;-65
2021/12/26 08:10:18;;;;;;;19.25;9.20;;;;;;;4.01;100.00;97934.31;5055812;28;20048;-65
2021/12/26 08:12:43;;;;;;;32.83;13.68;;;;;;;4.07;100.00;97930.81;5064720;28;20036;-65
2021/12/26 08:15:09;;;;;;;22.55;11.15;;;;;;;4.03;100.00;97948.19;5059736;28;20029;-65
2021/12/26 08:17:38;;;;;;;20.75;9.10;;;;;;;4.13;100.00;97952.47;5056369;28;20033;-65
2021/12/26 08:20:05;;;;;;;19.70;10.07;;;;;;;4.20;100.00;97951.56;5058618;28;20014;-65
2021/12/26 08:22:30;;;;;;;20.17;10.43;;;;;;;4.08;100.00;97946.41;5054847;28;20063;-65
2021/12/26 08:24:56;;;;;;;25.80;10.70;;;;;;;4.09;100.00;97950.75;5047149;28;20033;-65
2021/12/26 08:27:21;;;;;;;18.83;9.93;;;;;;;4.07;100.00;97968.13;5044843;28;20075;-65
2021/12/26 08:29:47;;;;;;;41.78;14.73;;;;;;;4.19;100.00;97968.06;5044855;28;20039;-65
2021/12/26 08:32:15;;;;;;;21.13;9.82;;;;;;;4.18;100.00;97950.69;5044714;28;20088;-65
2021/12/26 08:34:42;;;;;;;31.58;15.20;;;;;;;4.13;100.00;97946.41;5059018;28;20021;-65
2021/12/26 08:37:07;;;;;;;20.58;10.63;;;;;;;4.17;100.00;97959.41;5063967;28;20101;-65
2021/12/26 08:39:36;;;;;;;22.00;11.57;;;;;;;4.19;100.00;97951.56;5064354;28;20316;-65
2021/12/26 08:42:03;;;;;;;22.65;10.68;;;;;;;4.25;100.00;97960.19;5064066;28;20252;-65
2021/12/26 08:44:28;;;;;;;29.23;13.07;;;;;;;4.18;100.00;97950.69;5063982;28;20065;-65
2021/12/26 08:46:54;;;;;;;19.60;9.63;;;;;;;4.32;100.00;97942.81;5062377;28;20029;-65
2021/12/26 08:49:20;;;;;;;21.00;10.90;;;;;;;4.23;100.00;97938.53;5064230;28;20350;-65
2021/12/26 08:51:46;;;;;;;23.02;11.98;;;;;;;4.09;100.00;97935.13;5057288;28;20083;-65
2021/12/26 08:54:12;;;;;;;16.23;8.73;;;;;;;4.03;100.00;97934.31;5046125;28;20029;-65
2021/12/26 08:56:38;;;;;;;40.72;19.00;;;;;;;4.02;100.00;97943.84;5045476;28;20343;-65
2021/12/26 08:59:04;;;;;;;88.65;32.38;;;;;;;4.03;100.00;97956.00;5057817;28;20044;-65
2021/12/26 09:01:30;;;;;;;62.60;26.58;;;;;;;4.07;100.00;97983.75;5050906;28;20114;-65
2021/12/26 09:03:56;;;;;;;20.60;9.65;;;;;;;4.17;100.00;97982.84;5043761;28;20029;-65
2021/12/26 09:06:22;;;;;;;23.17;9.57;;;;;;;4.14;100.00;97979.38;5044160;28;20083;-65
2021/12/26 09:08:47;;;;;;;25.23;13.20;;;;;;;4.11;100.00;97980.25;5044104;28;20078;-65
2021/12/26 09:11:13;;;;;;;26.40;12.55;;;;;;;4.13;100.00;97973.31;5043885;28;20061;-65
2021/12/26 09:13:38;;;;;;;28.45;13.80;;;;;;;4.16;100.00;97988.94;5044028;28;20029;-65
2021/12/26 09:16:05;;;;;;;19.50;10.20;;;;;;;4.14;100.00;97990.66;5043597;28;20031;-65
2021/12/26 09:18:30;;;;;;;21.25;11.90;;;;;;;4.11;100.00;97985.47;5060020;28;20025;-65
2021/12/26 09:20:55;;;;;;;26.55;13.40;;;;;;;4.21;100.00;97991.50;5060528;28;20088;-65
2021/12/26 09:23:21;;;;;;;13.77;7.90;;;;;;;4.03;100.00;97982.03;5043895;28;20039;-65
2021/12/26 09:25:46;;;;;;;20.98;12.77;;;;;;;3.95;100.00;97978.59;5052283;28;20335;-65
2021/12/26 09:28:12;;;;;;;23.00;12.15;;;;;;;3.89;100.00;97983.81;5061856;28;20332;-65
2021/12/26 09:30:37;;;;;;;23.27;11.50;;;;;;;3.90;100.00;97989.91;5049453;28;20028;-65
2021/12/26 09:33:03;;;;;;;23.08;11.50;;;;;;;4.05;100.00;97997.66;5043000;28;20267;-65
2021/12/26 09:35:29;;;;;;;19.02;9.63;;;;;;;4.05;100.00;97995.06;5052417;28;20031;-65
2021/12/26 09:37:55;;;;;;;22.27;11.70;;;;;;;4.03;100.00;97988.97;5051143;28;20017;-65
2021/12/26 09:40:21;;;;;;;24.40;11.65;;;;;;;4.11;100.00;98006.28;5043583;28;20025;-65
2021/12/26 09:42:47;;;;;;;19.90;9.55;;;;;;;4.08;100.00;98006.31;5043700;28;20048;-65
2021/12/26 09:45:14;;;;;;;17.27;8.50;;;;;;;4.02;100.00;97993.31;5043447;28;20096;-65
2021/12/26 09:47:41;;;;;;;17.15;8.93;;;;;;;3.97;100.00;97992.47;5043437;28;20032;-65
2021/12/26 09:50:09;;;;;;;18.88;9.05;;;;;;;3.96;100.00;98015.91;5043351;28;20071;-65
2021/12/26 09:52:35;;;;;;;16.60;8.55;;;;;;;4.01;100.00;98009.81;5043292;28;20266;-65
2021/12/26 09:55:01;;;;;;;21.45;9.75;;;;;;;4.07;100.00;98014.13;5045067;28;20025;-65
2021/12/26 09:57:28;;;;;;;23.00;10.02;;;;;;;4.05;100.00;98014.13;5063043;28;20013;-65
2021/12/26 09:59:55;;;;;;;16.17;9.00;;;;;;;4.31;100.00;98019.25;5063218;28;20284;-65
2021/12/26 10:02:20;;;;;;;17.65;9.07;;;;;;;4.12;100.00;98004.56;5063145;28;20023;-65
2021/12/26 10:04:48;;;;;;;13.63;7.05;;;;;;;4.01;100.00;97991.59;5063031;28;20021;-65
2021/12/26 10:07:17;;;;;;;14.50;8.23;;;;;;;4.07;100.00;97996.78;5063040;28;20052;-65
2021/12/26 10:09:47;;;;;;;16.23;8.70;;;;;;;4.16;100.00;98004.56;5062483;28;20032;-65
2021/12/26 10:12:14;;;;;;;13.90;7.82;;;;;;;4.32;100.00;97995.78;5062948;28;20016;-65
2021/12/26 10:14:43;;;;;;;16.55;7.53;;;;;;;4.18;100.00;97981.94;5063023;28;20317;-65
2021/12/26 10:17:11;;;;;;;13.27;6.82;;;;;;;4.18;100.00;97981.94;5062940;28;20025;-65
2021/12/26 10:19:40;;;;;;;15.63;8.18;;;;;;;4.22;100.00;97978.47;5062894;28;20024;-65
2021/12/26 10:22:07;;;;;;;13.40;7.57;;;;;;;4.29;100.00;97985.38;5062503;28;20025;-65
2021/12/26 10:24:38;;;;;;;11.75;6.65;;;;;;;4.25;100.00;97977.59;5053381;28;20025;-65
2021/12/26 10:27:05;;;;;;;14.77;8.67;;;;;;;4.10;100.00;97973.31;5042958;28;20071;-65
2021/12/26 10:29:43;;;;;;;9.60;5.53;;;;;;;4.21;100.00;97981.94;5042868;28;20021;-65
2021/12/26 10:32:13;;;;;;;9.32;5.22;;;;;;;4.22;100.00;97961.97;5042781;28;20056;-65
2021/12/26 10:34:53;;;;;;;9.00;5.38;;;;;;;4.29;100.00;97968.88;5047527;28;20036;-65
2021/12/26 10:37:28;;;;;;;10.52;6.00;;;;;;;4.39;100.00;97960.13;5055425;28;20028;-65
2021/12/26 10:40:04;;;;;;;8.77;4.90;;;;;;;4.30;100.00;97945.44;5052111;28;20355;-65
2021/12/26 10:42:35;;;;;;;8.85;5.15;;;;;;;4.30;100.00;97950.63;5052683;28;20020;-65
2021/12/26 10:45:09;;;;;;;11.80;5.67;;;;;;;4.41;100.00;97959.28;5054766;28;20070;-65
2021/12/26 10:47:36;;;;;;;7.55;4.05;;;;;;;4.40;100.00;97952.31;5057759;28;20254;-65
2021/12/26 10:50:07;;;;;;;9.57;5.60;;;;;;;4.44;100.00;97948.81;5057439;28;20283;-65
2021/12/26 10:52:37;;;;;;;11.88;4.82;;;;;;;4.44;100.00;97943.59;5051501;28;20052;-65
2021/12/26 10:55:12;;;;;;;6.50;3.92;;;;;;;4.55;100.00;97940.06;5057700;28;20128;-65
2021/12/26 10:57:46;;;;;;;11.73;4.93;;;;;;;4.46;100.00;97936.66;5060105;28;20025;-65
2021/12/26 11:00:12;;;;;;;13.27;5.72;;;;;;;4.57;100.00;97943.53;5053563;28;20037;-65
2021/12/26 11:02:40;;;;;;;18.17;8.82;;;;;;;4.52;100.00;97940.09;5063428;28;20316;-65
2021/12/26 11:05:06;;;;;;;5.97;3.08;;;;;;;4.44;100.00;97941.00;5068368;28;20321;-65
2021/12/26 11:07:56;;;;;;;7.05;3.40;;;;;;;4.38;100.00;97933.25;5065133;28;20104;-65
2021/12/26 11:10:26;;;;;;;13.15;7.07;;;;;;;4.33;100.00;97929.78;5048587;28;20420;-65
2021/12/26 11:12:58;;;;;;;8.70;4.20;;;;;;;4.35;100.00;97933.25;5055165;28;20032;-65
2021/12/26 11:15:28;;;;;;;6.15;3.78;;;;;;;4.32;100.00;97935.00;5058105;28;20028;-65
2021/12/26 11:18:07;;;;;;;7.80;4.60;;;;;;;4.30;100.00;97924.59;5049871;28;20301;-65
2021/12/26 11:20:38;;;;;;;6.80;4.00;;;;;;;4.47;100.00;97927.94;5066766;28;20059;-65
2021/12/26 11:23:11;;;;;;;7.07;3.97;;;;;;;4.61;100.00;97924.38;5062289;28;20063;-65
2021/12/26 11:25:42;;;;;;;7.13;3.60;;;;;;;4.49;100.00;97921.00;5060888;28;20270;-65
2021/12/26 11:28:09;;;;;;;8.32;4.28;;;;;;;4.59;100.00;97931.34;5064840;28;20087;-65